Table Rock, Nebraska
Current Conditions -  °F | °C
As of 10:53 AM on Friday 24 Oct 2014 (Local Time) from KFNB Reporting Station
Clear Clear  
Wind Chill: 65°   Ceiling: Unl
Heat Index: 65°   Visibility: 10mi
Dew Point: 60°   Wind: 10mph
Humidity: 84%   Direction: 190°S
Pressure: 29.99"   Gusts: NA
Location:  40.18°N, 96.1°W
Report Text: KFNB 241553Z AUTO 19009KT 10SM CLR 18/16 A2999 RMK AO2 SLP150 T01830156
Loading
Personal Weather Stations






























Interactive Weather Map New forecast layout! Learn more

10-Day Weather Forecast

Advertisements
Track Severe Weather on mobile